sensor_id;sensor_type;location;lat;lon;timestamp;temperature;humidity
4820;DHT22;2424;49.696;6.630;2022-10-22T00:02:58;14.90;99.90
4820;DHT22;2424;49.696;6.630;2022-10-22T00:08:20;14.90;99.90
4820;DHT22;2424;49.696;6.630;2022-10-22T00:13:43;14.90;99.90
4820;DHT22;2424;49.696;6.630;2022-10-22T00:19:06;14.80;99.90
4820;DHT22;2424;49.696;6.630;2022-10-22T00:24:31;14.80;99.90
4820;DHT22;2424;49.696;6.630;2022-10-22T00:29:52;14.70;99.90
4820;DHT22;2424;49.696;6.630;2022-10-22T00:35:16;14.70;99.90
4820;DHT22;2424;49.696;6.630;2022-10-22T00:40:38;14.70;99.90
4820;DHT22;2424;49.696;6.630;2022-10-22T00:46:02;14.80;99.90
4820;DHT22;2424;49.696;6.630;2022-10-22T00:51:29;14.90;99.90
4820;DHT22;2424;49.696;6.630;2022-10-22T00:56:52;14.90;99.90
4820;DHT22;2424;49.696;6.630;2022-10-22T01:02:15;15.00;99.90
4820;DHT22;2424;49.696;6.630;2022-10-22T01:07:42;15.00;99.90
4820;DHT22;2424;49.696;6.630;2022-10-22T01:13:14;14.90;99.90
4820;DHT22;2424;49.696;6.630;2022-10-22T01:18:44;15.00;99.90
4820;DHT22;2424;49.696;6.630;2022-10-22T01:24:28;14.90;99.90
4820;DHT22;2424;49.696;6.630;2022-10-22T01:29:57;14.90;99.90
4820;DHT22;2424;49.696;6.630;2022-10-22T01:35:23;14.90;99.90
4820;DHT22;2424;49.696;6.630;2022-10-22T01:40:46;14.90;99.90
4820;DHT22;2424;49.696;6.630;2022-10-22T01:46:11;14.90;99.90
4820;DHT22;2424;49.696;6.630;2022-10-22T01:51:48;14.90;99.90
4820;DHT22;2424;49.696;6.630;2022-10-22T01:57:18;14.90;99.90
4820;DHT22;2424;49.696;6.630;2022-10-22T02:02:50;14.90;99.90
4820;DHT22;2424;49.696;6.630;2022-10-22T02:08:19;14.90;99.90
4820;DHT22;2424;49.696;6.630;2022-10-22T02:13:45;14.80;99.90
4820;DHT22;2424;49.696;6.630;2022-10-22T02:19:14;14.80;99.90
4820;DHT22;2424;49.696;6.630;2022-10-22T02:24:39;14.80;99.90
4820;DHT22;2424;49.696;6.630;2022-10-22T02:30:04;14.80;99.90
4820;DHT22;2424;49.696;6.630;2022-10-22T02:35:29;14.70;99.90
4820;DHT22;2424;49.696;6.630;2022-10-22T02:40:52;14.60;99.90
4820;DHT22;2424;49.696;6.630;2022-10-22T02:46:14;14.60;99.90
4820;DHT22;2424;49.696;6.630;2022-10-22T02:51:37;14.50;99.90
4820;DHT22;2424;49.696;6.630;2022-10-22T02:56:59;14.50;99.90
4820;DHT22;2424;49.696;6.630;2022-10-22T03:02:21;14.50;99.90
4820;DHT22;2424;49.696;6.630;2022-10-22T03:07:44;14.40;99.90
4820;DHT22;2424;49.696;6.630;2022-10-22T03:13:06;14.40;99.90
4820;DHT22;2424;49.696;6.630;2022-10-22T03:18:28;14.30;99.90
4820;DHT22;2424;49.696;6.630;2022-10-22T03:23:52;14.30;99.90
4820;DHT22;2424;49.696;6.630;2022-10-22T03:29:14;14.30;99.90
4820;DHT22;2424;49.696;6.630;2022-10-22T03:34:37;14.20;99.90
4820;DHT22;2424;49.696;6.630;2022-10-22T03:40:00;14.20;99.90
4820;DHT22;2424;49.696;6.630;2022-10-22T03:45:22;14.20;99.90
4820;DHT22;2424;49.696;6.630;2022-10-22T03:50:44;14.20;99.90
4820;DHT22;2424;49.696;6.630;2022-10-22T03:56:09;14.10;99.90
4820;DHT22;2424;49.696;6.630;2022-10-22T04:01:31;14.10;99.90
4820;DHT22;2424;49.696;6.630;2022-10-22T04:06:53;14.00;99.90
4820;DHT22;2424;49.696;6.630;2022-10-22T04:12:16;14.00;99.90
4820;DHT22;2424;49.696;6.630;2022-10-22T04:17:38;14.00;99.90
4820;DHT22;2424;49.696;6.630;2022-10-22T04:23:00;13.90;99.90
4820;DHT22;2424;49.696;6.630;2022-10-22T04:28:23;13.90;99.90
4820;DHT22;2424;49.696;6.630;2022-10-22T04:33:46;13.90;99.90
4820;DHT22;2424;49.696;6.630;2022-10-22T04:39:08;13.80;99.90
4820;DHT22;2424;49.696;6.630;2022-10-22T04:44:31;13.80;99.90
4820;DHT22;2424;49.696;6.630;2022-10-22T04:49:53;13.80;99.90
4820;DHT22;2424;49.696;6.630;2022-10-22T04:55:17;13.70;99.90
4820;DHT22;2424;49.696;6.630;2022-10-22T05:00:40;13.70;99.90
4820;DHT22;2424;49.696;6.630;2022-10-22T05:06:03;13.70;99.90
4820;DHT22;2424;49.696;6.630;2022-10-22T05:11:26;13.60;99.90
4820;DHT22;2424;49.696;6.630;2022-10-22T05:16:51;13.60;99.90
4820;DHT22;2424;49.696;6.630;2022-10-22T05:22:15;13.50;99.90
4820;DHT22;2424;49.696;6.630;2022-10-22T05:27:38;13.50;99.90
4820;DHT22;2424;49.696;6.630;2022-10-22T05:33:02;13.50;99.90
4820;DHT22;2424;49.696;6.630;2022-10-22T05:38:24;13.40;99.90
4820;DHT22;2424;49.696;6.630;2022-10-22T05:43:46;13.40;99.90
4820;DHT22;2424;49.696;6.630;2022-10-22T05:49:12;13.40;99.90
4820;DHT22;2424;49.696;6.630;2022-10-22T05:54:34;13.30;99.90
4820;DHT22;2424;49.696;6.630;2022-10-22T05:59:56;13.30;99.90
4820;DHT22;2424;49.696;6.630;2022-10-22T06:05:20;13.30;99.90
4820;DHT22;2424;49.696;6.630;2022-10-22T06:10:42;13.20;99.90
4820;DHT22;2424;49.696;6.630;2022-10-22T06:16:04;13.30;99.90
4820;DHT22;2424;49.696;6.630;2022-10-22T06:21:29;13.30;99.90
4820;DHT22;2424;49.696;6.630;2022-10-22T06:26:51;13.20;99.90
4820;DHT22;2424;49.696;6.630;2022-10-22T06:32:13;13.20;99.90
4820;DHT22;2424;49.696;6.630;2022-10-22T06:37:37;13.20;99.90
4820;DHT22;2424;49.696;6.630;2022-10-22T06:42:59;13.20;99.90
4820;DHT22;2424;49.696;6.630;2022-10-22T06:48:20;13.10;99.90
4820;DHT22;2424;49.696;6.630;2022-10-22T06:53:44;13.10;99.90
4820;DHT22;2424;49.696;6.630;2022-10-22T06:59:06;13.20;99.90
4820;DHT22;2424;49.696;6.630;2022-10-22T07:04:28;13.20;99.90
4820;DHT22;2424;49.696;6.630;2022-10-22T07:09:52;13.20;99.90
4820;DHT22;2424;49.696;6.630;2022-10-22T07:15:14;13.20;99.90
4820;DHT22;2424;49.696;6.630;2022-10-22T07:20:36;13.20;99.90
4820;DHT22;2424;49.696;6.630;2022-10-22T07:26:03;13.30;99.90
4820;DHT22;2424;49.696;6.630;2022-10-22T07:31:29;13.50;99.90
4820;DHT22;2424;49.696;6.630;2022-10-22T07:36:51;13.50;99.90
4820;DHT22;2424;49.696;6.630;2022-10-22T07:42:15;13.50;99.90
4820;DHT22;2424;49.696;6.630;2022-10-22T07:47:37;13.60;99.90
4820;DHT22;2424;49.696;6.630;2022-10-22T07:52:59;13.70;99.90
4820;DHT22;2424;49.696;6.630;2022-10-22T07:58:24;13.80;99.90
4820;DHT22;2424;49.696;6.630;2022-10-22T08:03:46;13.80;99.90
4820;DHT22;2424;49.696;6.630;2022-10-22T08:09:09;13.90;99.90
4820;DHT22;2424;49.696;6.630;2022-10-22T08:14:32;13.90;99.90
4820;DHT22;2424;49.696;6.630;2022-10-22T08:19:55;13.90;99.90
4820;DHT22;2424;49.696;6.630;2022-10-22T08:25:18;14.00;99.90
4820;DHT22;2424;49.696;6.630;2022-10-22T08:30:41;14.00;99.90
4820;DHT22;2424;49.696;6.630;2022-10-22T08:36:05;14.00;99.90
4820;DHT22;2424;49.696;6.630;2022-10-22T08:41:27;14.10;99.90
4820;DHT22;2424;49.696;6.630;2022-10-22T08:47:03;14.20;99.90
4820;DHT22;2424;49.696;6.630;2022-10-22T08:52:27;14.20;99.90
4820;DHT22;2424;49.696;6.630;2022-10-22T08:57:53;14.20;99.90
4820;DHT22;2424;49.696;6.630;2022-10-22T09:03:38;14.30;99.90
4820;DHT22;2424;49.696;6.630;2022-10-22T09:09:09;14.30;99.90
4820;DHT22;2424;49.696;6.630;2022-10-22T09:14:32;14.40;99.90
4820;DHT22;2424;49.696;6.630;2022-10-22T09:20:03;14.50;99.90
4820;DHT22;2424;49.696;6.630;2022-10-22T09:25:30;14.80;99.90
4820;DHT22;2424;49.696;6.630;2022-10-22T09:30:52;14.90;99.90
4820;DHT22;2424;49.696;6.630;2022-10-22T09:36:18;14.90;99.90
4820;DHT22;2424;49.696;6.630;2022-10-22T09:41:42;14.90;99.90
4820;DHT22;2424;49.696;6.630;2022-10-22T09:47:04;14.90;99.90
4820;DHT22;2424;49.696;6.630;2022-10-22T09:52:30;14.90;99.90
4820;DHT22;2424;49.696;6.630;2022-10-22T09:57:55;14.90;99.90
4820;DHT22;2424;49.696;6.630;2022-10-22T10:03:20;14.90;99.90
4820;DHT22;2424;49.696;6.630;2022-10-22T10:08:44;15.00;99.90
4820;DHT22;2424;49.696;6.630;2022-10-22T10:14:12;15.10;99.90
4820;DHT22;2424;49.696;6.630;2022-10-22T10:19:55;15.30;99.90
4820;DHT22;2424;49.696;6.630;2022-10-22T10:25:38;15.60;99.90
4820;DHT22;2424;49.696;6.630;2022-10-22T10:31:09;15.80;99.90
4820;DHT22;2424;49.696;6.630;2022-10-22T10:36:38;15.90;99.90
4820;DHT22;2424;49.696;6.630;2022-10-22T10:42:07;16.00;99.90
4820;DHT22;2424;49.696;6.630;2022-10-22T10:47:54;16.00;99.90
4820;DHT22;2424;49.696;6.630;2022-10-22T10:53:24;15.90;99.90
4820;DHT22;2424;49.696;6.630;2022-10-22T10:58:55;16.10;99.90
4820;DHT22;2424;49.696;6.630;2022-10-22T11:10:15;16.60;99.90
4820;DHT22;2424;49.696;6.630;2022-10-22T11:15:44;16.70;99.90
4820;DHT22;2424;49.696;6.630;2022-10-22T11:21:20;16.90;99.90
4820;DHT22;2424;49.696;6.630;2022-10-22T11:26:47;17.00;99.90
4820;DHT22;2424;49.696;6.630;2022-10-22T11:32:14;16.90;99.90
4820;DHT22;2424;49.696;6.630;2022-10-22T11:37:38;17.10;99.90
4820;DHT22;2424;49.696;6.630;2022-10-22T11:43:04;17.20;99.90
4820;DHT22;2424;49.696;6.630;2022-10-22T11:48:35;17.30;99.90
4820;DHT22;2424;49.696;6.630;2022-10-22T11:53:57;17.60;99.90
4820;DHT22;2424;49.696;6.630;2022-10-22T11:59:38;17.50;99.90
4820;DHT22;2424;49.696;6.630;2022-10-22T12:05:35;17.90;99.90
4820;DHT22;2424;49.696;6.630;2022-10-22T12:11:05;18.20;99.90
4820;DHT22;2424;49.696;6.630;2022-10-22T12:16:37;18.80;99.90
4820;DHT22;2424;49.696;6.630;2022-10-22T12:22:12;18.40;99.90
4820;DHT22;2424;49.696;6.630;2022-10-22T12:27:36;18.30;99.90
4820;DHT22;2424;49.696;6.630;2022-10-22T12:32:59;18.10;99.90
4820;DHT22;2424;49.696;6.630;2022-10-22T12:38:23;18.70;99.90
4820;DHT22;2424;49.696;6.630;2022-10-22T12:43:46;18.50;99.90
4820;DHT22;2424;49.696;6.630;2022-10-22T12:49:14;19.00;99.90
4820;DHT22;2424;49.696;6.630;2022-10-22T12:54:39;19.70;99.90
4820;DHT22;2424;49.696;6.630;2022-10-22T13:00:02;19.80;99.90
4820;DHT22;2424;49.696;6.630;2022-10-22T13:05:30;18.90;99.90
4820;DHT22;2424;49.696;6.630;2022-10-22T13:11:06;19.50;99.90
4820;DHT22;2424;49.696;6.630;2022-10-22T13:16:28;20.00;99.90
4820;DHT22;2424;49.696;6.630;2022-10-22T13:21:51;20.30;99.90
4820;DHT22;2424;49.696;6.630;2022-10-22T13:27:15;20.10;99.90
4820;DHT22;2424;49.696;6.630;2022-10-22T13:32:37;19.60;99.90
4820;DHT22;2424;49.696;6.630;2022-10-22T13:38:02;19.70;99.90
4820;DHT22;2424;49.696;6.630;2022-10-22T13:43:25;20.10;99.90
4820;DHT22;2424;49.696;6.630;2022-10-22T13:48:51;20.10;99.90
4820;DHT22;2424;49.696;6.630;2022-10-22T13:54:15;20.10;99.90
4820;DHT22;2424;49.696;6.630;2022-10-22T13:59:41;20.20;99.90
4820;DHT22;2424;49.696;6.630;2022-10-22T14:05:04;20.30;99.90
4820;DHT22;2424;49.696;6.630;2022-10-22T14:10:30;20.00;99.90
4820;DHT22;2424;49.696;6.630;2022-10-22T14:15:53;20.20;99.90
4820;DHT22;2424;49.696;6.630;2022-10-22T14:21:16;20.00;99.90
4820;DHT22;2424;49.696;6.630;2022-10-22T14:26:38;20.10;99.90
4820;DHT22;2424;49.696;6.630;2022-10-22T14:32:01;20.40;99.90
4820;DHT22;2424;49.696;6.630;2022-10-22T14:37:23;20.20;99.90
4820;DHT22;2424;49.696;6.630;2022-10-22T14:42:47;20.30;99.90
4820;DHT22;2424;49.696;6.630;2022-10-22T14:48:13;20.10;99.90
4820;DHT22;2424;49.696;6.630;2022-10-22T14:53:35;19.70;99.90
4820;DHT22;2424;49.696;6.630;2022-10-22T14:58:57;19.70;99.90
4820;DHT22;2424;49.696;6.630;2022-10-22T15:04:21;19.60;99.90
4820;DHT22;2424;49.696;6.630;2022-10-22T15:09:45;19.60;99.90
4820;DHT22;2424;49.696;6.630;2022-10-22T15:15:08;19.30;99.90
4820;DHT22;2424;49.696;6.630;2022-10-22T15:20:31;19.10;99.90
4820;DHT22;2424;49.696;6.630;2022-10-22T15:25:53;19.00;99.90
4820;DHT22;2424;49.696;6.630;2022-10-22T15:31:15;18.90;99.90
4820;DHT22;2424;49.696;6.630;2022-10-22T15:37:01;18.90;99.90
4820;DHT22;2424;49.696;6.630;2022-10-22T15:42:26;18.90;99.90
4820;DHT22;2424;49.696;6.630;2022-10-22T15:47:49;18.90;99.90
4820;DHT22;2424;49.696;6.630;2022-10-22T15:53:12;18.70;99.90
4820;DHT22;2424;49.696;6.630;2022-10-22T15:58:34;18.60;99.90
4820;DHT22;2424;49.696;6.630;2022-10-22T16:03:56;18.90;99.90
4820;DHT22;2424;49.696;6.630;2022-10-22T16:09:25;18.80;99.90
4820;DHT22;2424;49.696;6.630;2022-10-22T16:14:49;18.50;99.90
4820;DHT22;2424;49.696;6.630;2022-10-22T16:20:11;18.30;99.90
4820;DHT22;2424;49.696;6.630;2022-10-22T16:25:38;18.00;99.90
4820;DHT22;2424;49.696;6.630;2022-10-22T16:31:01;17.70;99.90
4820;DHT22;2424;49.696;6.630;2022-10-22T16:36:24;17.50;99.90
4820;DHT22;2424;49.696;6.630;2022-10-22T16:41:47;17.30;99.90
4820;DHT22;2424;49.696;6.630;2022-10-22T16:47:09;17.00;99.90
4820;DHT22;2424;49.696;6.630;2022-10-22T16:52:31;16.70;99.90
4820;DHT22;2424;49.696;6.630;2022-10-22T16:57:54;16.60;99.90
4820;DHT22;2424;49.696;6.630;2022-10-22T17:03:16;16.50;99.90
4820;DHT22;2424;49.696;6.630;2022-10-22T17:08:39;16.40;99.90
4820;DHT22;2424;49.696;6.630;2022-10-22T17:14:03;16.20;99.90
4820;DHT22;2424;49.696;6.630;2022-10-22T17:19:25;16.10;99.90
4820;DHT22;2424;49.696;6.630;2022-10-22T17:25:07;16.00;99.90
4820;DHT22;2424;49.696;6.630;2022-10-22T17:30:30;15.90;99.90
4820;DHT22;2424;49.696;6.630;2022-10-22T17:35:52;15.70;99.90
4820;DHT22;2424;49.696;6.630;2022-10-22T17:41:16;15.70;99.90
4820;DHT22;2424;49.696;6.630;2022-10-22T17:46:40;15.70;99.90
4820;DHT22;2424;49.696;6.630;2022-10-22T17:52:03;15.60;99.90
4820;DHT22;2424;49.696;6.630;2022-10-22T17:57:25;15.50;99.90
4820;DHT22;2424;49.696;6.630;2022-10-22T18:02:48;15.30;99.90
4820;DHT22;2424;49.696;6.630;2022-10-22T18:08:10;15.20;99.90
4820;DHT22;2424;49.696;6.630;2022-10-22T18:13:32;15.10;99.90
4820;DHT22;2424;49.696;6.630;2022-10-22T18:18:57;15.10;99.90
4820;DHT22;2424;49.696;6.630;2022-10-22T18:24:19;15.10;99.90
4820;DHT22;2424;49.696;6.630;2022-10-22T18:29:41;15.10;99.90
4820;DHT22;2424;49.696;6.630;2022-10-22T18:35:06;15.10;99.90
4820;DHT22;2424;49.696;6.630;2022-10-22T18:40:28;15.10;99.90
4820;DHT22;2424;49.696;6.630;2022-10-22T18:45:51;15.10;99.90
4820;DHT22;2424;49.696;6.630;2022-10-22T18:51:14;15.00;99.90
4820;DHT22;2424;49.696;6.630;2022-10-22T18:56:37;14.70;99.90
4820;DHT22;2424;49.696;6.630;2022-10-22T19:02:01;14.60;99.90
4820;DHT22;2424;49.696;6.630;2022-10-22T19:07:24;14.60;99.90
4820;DHT22;2424;49.696;6.630;2022-10-22T19:12:48;14.50;99.90
4820;DHT22;2424;49.696;6.630;2022-10-22T19:18:10;14.40;99.90
4820;DHT22;2424;49.696;6.630;2022-10-22T19:23:36;14.40;99.90
4820;DHT22;2424;49.696;6.630;2022-10-22T19:28:58;14.50;99.90
4820;DHT22;2424;49.696;6.630;2022-10-22T19:34:20;14.40;99.90
4820;DHT22;2424;49.696;6.630;2022-10-22T19:39:45;14.30;99.90
4820;DHT22;2424;49.696;6.630;2022-10-22T19:45:09;14.20;99.90
4820;DHT22;2424;49.696;6.630;2022-10-22T19:50:31;14.10;99.90
4820;DHT22;2424;49.696;6.630;2022-10-22T19:55:56;14.10;99.90
4820;DHT22;2424;49.696;6.630;2022-10-22T20:01:19;13.90;99.90
4820;DHT22;2424;49.696;6.630;2022-10-22T20:06:41;14.00;99.90
4820;DHT22;2424;49.696;6.630;2022-10-22T20:12:05;13.90;99.90
4820;DHT22;2424;49.696;6.630;2022-10-22T20:17:27;13.90;99.90
4820;DHT22;2424;49.696;6.630;2022-10-22T20:22:48;13.80;99.90
4820;DHT22;2424;49.696;6.630;2022-10-22T20:28:12;13.80;99.90
4820;DHT22;2424;49.696;6.630;2022-10-22T20:33:34;13.70;99.90
4820;DHT22;2424;49.696;6.630;2022-10-22T20:38:59;13.70;99.90
4820;DHT22;2424;49.696;6.630;2022-10-22T20:44:23;13.60;99.90
4820;DHT22;2424;49.696;6.630;2022-10-22T20:49:44;13.50;99.90
4820;DHT22;2424;49.696;6.630;2022-10-22T20:55:09;13.50;99.90
4820;DHT22;2424;49.696;6.630;2022-10-22T21:00:35;13.50;99.90
4820;DHT22;2424;49.696;6.630;2022-10-22T21:05:59;13.40;99.90
4820;DHT22;2424;49.696;6.630;2022-10-22T21:11:21;13.40;99.90
4820;DHT22;2424;49.696;6.630;2022-10-22T21:16:46;13.30;99.90
4820;DHT22;2424;49.696;6.630;2022-10-22T21:22:09;13.30;99.90
4820;DHT22;2424;49.696;6.630;2022-10-22T21:27:32;13.30;99.90
4820;DHT22;2424;49.696;6.630;2022-10-22T21:32:55;13.10;99.90
4820;DHT22;2424;49.696;6.630;2022-10-22T21:38:18;13.20;99.90
4820;DHT22;2424;49.696;6.630;2022-10-22T21:43:41;13.10;99.90
4820;DHT22;2424;49.696;6.630;2022-10-22T21:49:05;13.10;99.90
4820;DHT22;2424;49.696;6.630;2022-10-22T21:54:27;13.00;99.90
4820;DHT22;2424;49.696;6.630;2022-10-22T21:59:49;12.90;99.90
4820;DHT22;2424;49.696;6.630;2022-10-22T22:05:12;12.90;99.90
4820;DHT22;2424;49.696;6.630;2022-10-22T22:10:36;12.80;99.90
4820;DHT22;2424;49.696;6.630;2022-10-22T22:16:00;12.80;99.90
4820;DHT22;2424;49.696;6.630;2022-10-22T22:21:25;12.70;99.90
4820;DHT22;2424;49.696;6.630;2022-10-22T22:26:47;12.70;99.90
4820;DHT22;2424;49.696;6.630;2022-10-22T22:32:09;12.70;99.90
4820;DHT22;2424;49.696;6.630;2022-10-22T22:37:36;12.60;99.90
4820;DHT22;2424;49.696;6.630;2022-10-22T22:42:59;12.60;99.90
4820;DHT22;2424;49.696;6.630;2022-10-22T22:48:21;12.50;99.90
4820;DHT22;2424;49.696;6.630;2022-10-22T22:53:44;12.50;99.90
4820;DHT22;2424;49.696;6.630;2022-10-22T22:59:06;12.50;99.90
4820;DHT22;2424;49.696;6.630;2022-10-22T23:04:30;12.40;99.90
4820;DHT22;2424;49.696;6.630;2022-10-22T23:09:54;12.40;99.90
4820;DHT22;2424;49.696;6.630;2022-10-22T23:15:16;12.30;99.90
4820;DHT22;2424;49.696;6.630;2022-10-22T23:20:39;12.40;99.90
4820;DHT22;2424;49.696;6.630;2022-10-22T23:26:03;12.30;99.90
4820;DHT22;2424;49.696;6.630;2022-10-22T23:31:25;12.30;99.90
4820;DHT22;2424;49.696;6.630;2022-10-22T23:36:47;12.20;99.90
4820;DHT22;2424;49.696;6.630;2022-10-22T23:42:11;12.10;99.90
4820;DHT22;2424;49.696;6.630;2022-10-22T23:47:33;12.10;99.90
4820;DHT22;2424;49.696;6.630;2022-10-22T23:52:55;12.10;99.90
4820;DHT22;2424;49.696;6.630;2022-10-22T23:58:18;12.10;99.90
